Weather reports worldwide

Advertisment
Brocken, Germany (10453): temperature & dewpoint: 10.01.2021 06:00:00 - 16.01.2021 06:00:00 (CET)Brocken, Germany (10453): wind speed & gusts: 10.01.2021 06:00:00 - 16.01.2021 06:00:00 (CET)Brocken, Germany (10453): wind direction: 10.01.2021 06:00:00 - 16.01.2021 06:00:00 (CET)Brocken, Germany (10453): visibility: 10.01.2021 06:00:00 - 16.01.2021 06:00:00 (CET)Brocken, Germany (10453): sunshine duration: 10.01.2021 06:00:00 - 16.01.2021 06:00:00 (CET)
Date & Time tt [°C] td [°C] ff [km/h] ff [kn] fx [km/h] fx [kn] dd vv [km] sd [min]
16.01.2021 06:00:00 -11,1 -12,4 35 19 55 30 WNW 0,1 0
16.01.2021 05:00:00 -11,0 -12,1 28 15 42 23 WNW 0,1 0
16.01.2021 04:00:00 -11,0 -12,1 28 15 41 22 WNW 0,1 0
16.01.2021 03:00:00 -11,0 -12,0 26 14 41 22 WNW - 0
16.01.2021 02:00:00 -11,0 -12,2 29 15 40 22 NW 0,1 0
16.01.2021 01:00:00 -10,9 -12,0 23 12 30 16 NNW 0,1 0
16.01.2021 00:00:00 -10,6 -11,8 25 14 35 19 N 0,1 0
15.01.2021 23:00:00 -9,8 -11,0 31 17 48 26 N 0,2 0
15.01.2021 22:00:00 -9,6 -10,5 32 17 46 25 N 0,1 0
15.01.2021 21:00:00 -9,5 -10,4 33 18 45 24 N 0,1 0
15.01.2021 20:00:00 -9,6 -10,7 35 19 48 26 N 0,4 0
15.01.2021 19:00:00 -9,1 -10,1 33 18 47 25 N 0,1 0
15.01.2021 18:00:00 -8,9 -9,9 33 18 49 27 NNW 0,1 0
15.01.2021 17:00:00 -8,7 -9,8 34 19 52 28 N 0,1 0
15.01.2021 16:00:00 -8,4 -9,3 35 19 47 25 NNW - 0
15.01.2021 15:00:00 -8,2 -9,2 34 18 50 27 NNW 0,1 0
15.01.2021 14:00:00 -7,9 -8,9 32 17 47 25 N 0,1 0
15.01.2021 13:00:00 -7,5 -8,4 29 16 39 21 N - 0
15.01.2021 12:00:00 -7,3 -8,2 29 16 37 20 N 0,1 0
15.01.2021 11:00:00 -7,6 -8,4 30 16 48 26 N 0,1 0
15.01.2021 10:00:00 -7,7 -8,6 29 16 37 20 N 0,1 0
15.01.2021 09:00:00 -7,4 -8,3 23 13 31 17 N 0,1 0
15.01.2021 08:00:00 -7,1 -7,8 21 11 32 17 N 0,1 0
15.01.2021 07:00:00 -7,1 -8,0 24 13 36 20 N 0,1 0
15.01.2021 06:00:00 -6,5 -7,4 23 13 31 17 NNE - 0
15.01.2021 05:00:00 -6,4 -7,2 19 11 24 13 N 0,1 0
15.01.2021 04:00:00 -6,4 -7,1 19 11 23 12 N 0,1 0
15.01.2021 03:00:00 -6,4 -7,0 16 9 21 12 N 0,1 0
15.01.2021 02:00:00 -6,6 -7,2 14 8 19 10 NNW - 0
15.01.2021 01:00:00 -7,2 -8,0 16 8 21 11 NNW 0,2 0
15.01.2021 00:00:00 -7,4 -8,2 15 8 23 12 N 0,3 0
14.01.2021 23:00:00 -7,8 -8,4 14 7 21 12 N 0,3 0
14.01.2021 22:00:00 -8,0 -9,0 15 8 23 13 N 8 0
14.01.2021 21:00:00 -7,9 -9,0 18 10 27 14 ENE 45 0
14.01.2021 20:00:00 -8,0 -8,8 18 10 26 14 N 0,2 0
14.01.2021 19:00:00 -7,6 -8,5 18 10 27 15 N 2,2 0
14.01.2021 18:00:00 -7,4 -8,2 20 11 28 15 N 0,1 0
14.01.2021 17:00:00 -7,1 -7,9 20 11 31 17 N 0,1 0
14.01.2021 16:00:00 -6,8 -7,5 21 11 33 18 N - 0
14.01.2021 15:00:00 -6,4 -7,2 20 11 32 18 N - 0
14.01.2021 14:00:00 -6,3 -7,2 24 13 30 16 N 0,2 0
14.01.2021 13:00:00 -5,8 -6,6 21 11 29 15 N - 0
14.01.2021 12:00:00 -5,9 -6,6 24 13 37 20 N - 0
14.01.2021 11:00:00 -6,0 -6,7 30 16 43 23 N - 0
14.01.2021 10:00:00 -6,2 -6,9 40 21 53 29 N - 0
14.01.2021 09:00:00 -6,3 -7,0 38 21 48 26 N - 0
14.01.2021 08:00:00 -6,5 -7,3 37 20 48 26 N 0,1 0
14.01.2021 07:00:00 -6,6 -7,3 40 21 62 34 NNW 0,1 0
14.01.2021 06:00:00 -6,9 -7,7 49 26 72 39 NNW - 0
14.01.2021 05:00:00 -7,2 -8,1 51 28 79 42 NW - 0
14.01.2021 04:00:00 -7,4 -8,3 55 30 79 42 NW - 0
14.01.2021 03:00:00 -7,8 -8,8 54 29 81 44 NW - 0
14.01.2021 02:00:00 -7,7 -8,8 55 30 81 44 NW 0,1 0
14.01.2021 01:00:00 -7,1 -8,1 50 27 79 42 NW 0,1 0
14.01.2021 00:00:00 -6,8 -7,7 58 31 79 43 NW 0,1 0
13.01.2021 23:00:00 -6,9 -7,8 50 27 74 40 NW 0,1 0
13.01.2021 22:00:00 -6,3 -7,1 45 25 83 45 NW 0,1 0
13.01.2021 21:00:00 -5,9 -6,7 50 27 84 45 WNW 0,1 0
13.01.2021 20:00:00 -4,9 -5,7 45 24 104 56 NW 0,4 0
13.01.2021 19:00:00 -4,7 -5,3 76 41 119 65 W 0,1 0
13.01.2021 18:00:00 -4,8 -5,4 74 40 117 63 W 0,1 0
13.01.2021 17:00:00 -4,8 -5,5 80 43 111 60 W - 0
13.01.2021 16:00:00 -4,9 -5,5 78 42 111 60 W - 0
13.01.2021 15:00:00 -4,9 -5,5 68 37 95 51 W - 0
13.01.2021 14:00:00 -4,8 -5,4 71 38 95 51 W - 0
13.01.2021 13:00:00 -4,9 -5,5 67 36 87 47 W - 0
13.01.2021 12:00:00 -4,8 -5,4 58 31 84 45 W - 0
13.01.2021 11:00:00 -4,9 -5,6 64 35 98 53 W 0,1 0
13.01.2021 10:00:00 -5,1 -5,7 57 31 82 44 W - 0
13.01.2021 09:00:00 -5,2 -5,8 63 34 84 45 W - 0
13.01.2021 08:00:00 -5,1 -5,8 63 34 83 45 W - 0
13.01.2021 07:00:00 -5,2 -5,9 60 33 86 47 W 0,1 0
13.01.2021 06:00:00 -5,2 -5,9 64 35 86 47 W - 0
13.01.2021 05:00:00 -5,3 -6,0 46 25 80 43 W 0,1 0
13.01.2021 04:00:00 -5,3 -6,0 51 28 81 44 W - 0
13.01.2021 03:00:00 -5,2 -6,0 54 29 78 42 W 0,2 0
13.01.2021 02:00:00 -5,5 -6,3 58 31 76 41 W 0,1 0
13.01.2021 01:00:00 -5,1 -5,8 47 26 63 34 WNW 0,1 0
13.01.2021 00:00:00 -5,1 -5,9 43 23 68 37 WNW 0,1 0
12.01.2021 23:00:00 -4,9 -5,6 41 22 71 39 WNW 0,1 0
12.01.2021 22:00:00 -4,9 -5,5 43 23 65 35 WNW 0,1 0
12.01.2021 21:00:00 -5,0 -5,7 45 24 71 38 NW 0,1 0
12.01.2021 20:00:00 -5,3 -6,0 45 24 71 38 NW 0,1 0
12.01.2021 19:00:00 -4,8 -5,4 49 26 76 41 NW 0,1 0
12.01.2021 18:00:00 -4,5 -5,1 50 27 63 34 W 0,1 0
12.01.2021 17:00:00 -4,4 -4,9 36 19 63 34 WNW 0,1 0
12.01.2021 16:00:00 -4,8 -5,5 42 23 63 34 NW 0,1 0
12.01.2021 15:00:00 -4,6 -5,3 41 22 55 30 NW 0,2 0
12.01.2021 14:00:00 -3,2 -3,8 31 17 74 40 WNW 0,2 0
12.01.2021 13:00:00 -2,9 -3,3 47 25 72 39 WSW 0,1 0
12.01.2021 12:00:00 -3,1 -3,5 54 29 85 46 WSW 0,1 0
12.01.2021 11:00:00 -3,0 -3,5 66 35 84 45 WSW 0,1 0
12.01.2021 10:00:00 -3,4 -3,9 68 37 90 48 WSW 0,1 0
12.01.2021 09:00:00 -3,8 -4,3 69 38 94 51 WSW 0,1 0
12.01.2021 08:00:00 -4,0 -4,6 76 41 98 53 SW 0,1 0
12.01.2021 07:00:00 -4,1 -4,7 81 44 98 53 SW 0,1 0
12.01.2021 06:00:00 -4,1 -4,7 80 43 102 55 WSW 0,1 0
12.01.2021 05:00:00 -4,2 -4,8 84 46 102 55 WSW 0,1 0
12.01.2021 04:00:00 -4,4 -5,0 82 44 100 54 SW 0,1 0
12.01.2021 03:00:00 -4,4 -5,1 76 41 92 50 SW 0,1 0
12.01.2021 02:00:00 -4,5 -5,1 78 42 102 55 SW - 0
12.01.2021 01:00:00 -4,5 -5,1 82 44 99 54 WSW - 0
12.01.2021 00:00:00 -4,6 -5,3 84 45 104 56 WSW - 0
11.01.2021 23:00:00 -4,9 -5,5 83 45 104 56 WSW - 0
11.01.2021 22:00:00 -5,2 -5,9 89 48 109 59 WSW - 0
11.01.2021 21:00:00 -5,3 -6,0 90 48 109 59 WSW - 0
11.01.2021 20:00:00 -5,5 -6,2 86 47 103 55 WSW - 0
11.01.2021 19:00:00 -5,6 -6,3 72 39 96 52 SW - 0
11.01.2021 18:00:00 -5,5 -6,3 77 41 96 52 SW - 0
11.01.2021 17:00:00 -5,1 -5,8 79 42 101 55 WSW - 0
11.01.2021 16:00:00 -5,6 -6,3 77 42 97 52 SW - 0
11.01.2021 15:00:00 -5,6 -6,4 73 39 94 51 SW 0,4 0
11.01.2021 14:00:00 -5,4 -6,2 66 36 85 46 WSW 0,4 6
11.01.2021 13:00:00 -5,3 -6,1 62 33 76 41 WSW 0,2 0
11.01.2021 12:00:00 -5,1 -5,8 48 26 71 38 WSW 0,1 0
11.01.2021 11:00:00 -4,5 -5,1 59 32 69 38 WSW 0,1 0
11.01.2021 10:00:00 -5,1 -5,7 47 25 60 33 WSW 0,1 0
11.01.2021 09:00:00 -5,6 -6,1 42 23 56 30 WSW 0,1 0
11.01.2021 08:00:00 -5,9 -6,6 43 23 61 33 WSW - 0
11.01.2021 07:00:00 -5,8 -6,6 39 21 54 29 WSW - 0
11.01.2021 06:00:00 -6,0 -6,8 44 24 54 29 WSW - 0
11.01.2021 05:00:00 -6,2 -7,0 39 21 51 28 WSW - 0
11.01.2021 04:00:00 -6,2 -6,9 41 22 52 28 WSW - 0
11.01.2021 03:00:00 -6,1 -6,8 41 22 56 30 WSW - 0
11.01.2021 02:00:00 -6,1 -6,7 36 20 48 26 WSW - 0
11.01.2021 01:00:00 -6,2 -6,8 41 22 67 36 WSW - 0
11.01.2021 00:00:00 -6,5 -7,2 57 31 65 35 W 0,1 0
10.01.2021 23:00:00 -6,8 -7,6 42 23 58 32 WSW 0,4 0
10.01.2021 22:00:00 -6,9 -7,9 39 21 48 26 WSW 38 0
10.01.2021 21:00:00 -6,8 -7,8 44 24 49 27 WSW 45 0
10.01.2021 20:00:00 -7,0 -8,0 40 21 49 26 W 38 0
10.01.2021 19:00:00 -7,2 -8,2 37 20 40 21 WSW 46 0
10.01.2021 18:00:00 -7,2 -8,0 35 19 42 23 W 0,2 0
10.01.2021 17:00:00 -7,1 -8,2 34 19 44 24 W 3,9 0
10.01.2021 16:00:00 -6,8 -7,6 34 19 44 24 W 0,2 6
10.01.2021 15:00:00 -6,3 -7,0 33 18 42 23 W 0,1 0
10.01.2021 14:00:00 -6,2 -6,8 29 16 38 20 WSW 0,1 2
10.01.2021 13:00:00 -6,3 -7,1 29 16 46 25 SW 0,1 23
10.01.2021 12:00:00 -6,5 -7,3 34 18 42 23 SW 0,1 44
10.01.2021 11:00:00 -6,4 -7,2 34 19 39 21 WSW 0,1 4
10.01.2021 10:00:00 -6,1 -6,9 29 16 37 20 WSW 0,1 0
10.01.2021 09:00:00 -6,7 -7,6 25 14 34 18 W 34 0
10.01.2021 08:00:00 -6,9 -7,8 24 13 36 19 WSW 12 0
10.01.2021 07:00:00 -7,2 -8,3 31 17 40 21 W 45 0
10.01.2021 06:00:00 -7,3 -8,4 29 16 37 20 W 53 0

tt = temperature
td = dewpoint
ff = wind speed
fx = gusts
dd = wind direction
vv = visibility
sd = sunshine duration

Next stations